sensor_id;sensor_type;location;lat;lon;timestamp;P1;durP1;ratioP1;P2;durP2;ratioP2
65459;SDS011;52058;49.822;6.754;2022-08-18T00:02:13;7.55;;;5.65;;
65459;SDS011;52058;49.822;6.754;2022-08-18T00:04:41;6.20;;;5.60;;
65459;SDS011;52058;49.822;6.754;2022-08-18T00:07:08;7.07;;;5.43;;
65459;SDS011;52058;49.822;6.754;2022-08-18T00:09:39;7.70;;;5.95;;
65459;SDS011;52058;49.822;6.754;2022-08-18T00:12:28;5.82;;;5.20;;
65459;SDS011;52058;49.822;6.754;2022-08-18T00:15:12;6.43;;;5.53;;
65459;SDS011;52058;49.822;6.754;2022-08-18T00:17:40;5.85;;;5.25;;
65459;SDS011;52058;49.822;6.754;2022-08-18T00:20:06;6.22;;;5.38;;
65459;SDS011;52058;49.822;6.754;2022-08-18T00:22:35;5.70;;;5.15;;
65459;SDS011;52058;49.822;6.754;2022-08-18T00:25:02;8.15;;;5.40;;
65459;SDS011;52058;49.822;6.754;2022-08-18T00:27:29;6.22;;;5.53;;
65459;SDS011;52058;49.822;6.754;2022-08-18T00:29:59;8.20;;;5.22;;
65459;SDS011;52058;49.822;6.754;2022-08-18T00:32:27;6.78;;;5.47;;
65459;SDS011;52058;49.822;6.754;2022-08-18T00:34:54;6.40;;;5.45;;
65459;SDS011;52058;49.822;6.754;2022-08-18T00:37:21;6.43;;;5.13;;
65459;SDS011;52058;49.822;6.754;2022-08-18T00:39:49;6.28;;;5.43;;
65459;SDS011;52058;49.822;6.754;2022-08-18T00:42:23;6.55;;;5.47;;
65459;SDS011;52058;49.822;6.754;2022-08-18T00:44:51;6.32;;;5.35;;
65459;SDS011;52058;49.822;6.754;2022-08-18T00:47:16;7.45;;;5.90;;
65459;SDS011;52058;49.822;6.754;2022-08-18T00:49:42;6.07;;;5.47;;
65459;SDS011;52058;49.822;6.754;2022-08-18T00:52:12;6.18;;;5.50;;
65459;SDS011;52058;49.822;6.754;2022-08-18T00:54:38;6.47;;;5.35;;
65459;SDS011;52058;49.822;6.754;2022-08-18T00:57:06;6.78;;;5.55;;
65459;SDS011;52058;49.822;6.754;2022-08-18T01:02:10;6.50;;;5.80;;
65459;SDS011;52058;49.822;6.754;2022-08-18T01:04:51;7.32;;;6.05;;
65459;SDS011;52058;49.822;6.754;2022-08-18T01:07:21;6.57;;;5.97;;
65459;SDS011;52058;49.822;6.754;2022-08-18T01:09:53;6.30;;;5.63;;
65459;SDS011;52058;49.822;6.754;2022-08-18T01:12:19;10.00;;;6.45;;
65459;SDS011;52058;49.822;6.754;2022-08-18T01:14:45;7.00;;;6.40;;
65459;SDS011;52058;49.822;6.754;2022-08-18T01:17:10;6.68;;;6.07;;
65459;SDS011;52058;49.822;6.754;2022-08-18T01:19:55;7.30;;;5.95;;
65459;SDS011;52058;49.822;6.754;2022-08-18T01:25:06;6.77;;;6.07;;
65459;SDS011;52058;49.822;6.754;2022-08-18T01:27:51;7.85;;;6.20;;
65459;SDS011;52058;49.822;6.754;2022-08-18T01:30:16;6.55;;;5.95;;
65459;SDS011;52058;49.822;6.754;2022-08-18T01:32:43;7.20;;;6.20;;
65459;SDS011;52058;49.822;6.754;2022-08-18T01:35:10;6.80;;;6.10;;
65459;SDS011;52058;49.822;6.754;2022-08-18T01:37:37;7.10;;;6.40;;
65459;SDS011;52058;49.822;6.754;2022-08-18T01:40:05;6.88;;;6.28;;
65459;SDS011;52058;49.822;6.754;2022-08-18T01:42:32;6.57;;;5.72;;
65459;SDS011;52058;49.822;6.754;2022-08-18T01:44:58;7.32;;;6.25;;
65459;SDS011;52058;49.822;6.754;2022-08-18T01:47:24;6.40;;;5.80;;
65459;SDS011;52058;49.822;6.754;2022-08-18T01:49:49;6.72;;;6.10;;
65459;SDS011;52058;49.822;6.754;2022-08-18T01:52:19;8.23;;;6.85;;
65459;SDS011;52058;49.822;6.754;2022-08-18T01:54:46;6.43;;;5.82;;
65459;SDS011;52058;49.822;6.754;2022-08-18T01:57:12;7.90;;;5.90;;
65459;SDS011;52058;49.822;6.754;2022-08-18T01:59:39;10.98;;;7.00;;
65459;SDS011;52058;49.822;6.754;2022-08-18T02:02:05;9.10;;;6.63;;
65459;SDS011;52058;49.822;6.754;2022-08-18T02:04:31;7.32;;;6.63;;
65459;SDS011;52058;49.822;6.754;2022-08-18T02:06:58;7.93;;;6.68;;
65459;SDS011;52058;49.822;6.754;2022-08-18T02:09:25;6.85;;;6.18;;
65459;SDS011;52058;49.822;6.754;2022-08-18T02:11:51;7.57;;;6.60;;
65459;SDS011;52058;49.822;6.754;2022-08-18T02:14:16;6.35;;;5.72;;
65459;SDS011;52058;49.822;6.754;2022-08-18T02:16:42;7.15;;;6.45;;
65459;SDS011;52058;49.822;6.754;2022-08-18T02:19:07;7.63;;;6.90;;
65459;SDS011;52058;49.822;6.754;2022-08-18T02:21:32;6.93;;;6.25;;
65459;SDS011;52058;49.822;6.754;2022-08-18T02:23:57;7.20;;;6.50;;
65459;SDS011;52058;49.822;6.754;2022-08-18T02:26:23;6.68;;;6.07;;
65459;SDS011;52058;49.822;6.754;2022-08-18T02:28:49;7.80;;;6.35;;
65459;SDS011;52058;49.822;6.754;2022-08-18T02:31:16;7.57;;;6.32;;
65459;SDS011;52058;49.822;6.754;2022-08-18T02:33:44;6.65;;;5.97;;
65459;SDS011;52058;49.822;6.754;2022-08-18T02:36:10;7.63;;;6.07;;
65459;SDS011;52058;49.822;6.754;2022-08-18T02:38:36;7.45;;;6.10;;
65459;SDS011;52058;49.822;6.754;2022-08-18T02:41:02;9.10;;;6.00;;
65459;SDS011;52058;49.822;6.754;2022-08-18T02:43:30;8.15;;;6.32;;
65459;SDS011;52058;49.822;6.754;2022-08-18T02:45:56;6.90;;;6.20;;
65459;SDS011;52058;49.822;6.754;2022-08-18T02:48:21;8.52;;;5.95;;
65459;SDS011;52058;49.822;6.754;2022-08-18T02:51:09;8.15;;;6.53;;
65459;SDS011;52058;49.822;6.754;2022-08-18T02:53:36;8.00;;;6.20;;
65459;SDS011;52058;49.822;6.754;2022-08-18T02:56:11;7.20;;;6.50;;
65459;SDS011;52058;49.822;6.754;2022-08-18T02:58:49;7.10;;;6.40;;
65459;SDS011;52058;49.822;6.754;2022-08-18T03:01:17;7.60;;;5.90;;
65459;SDS011;52058;49.822;6.754;2022-08-18T03:03:43;8.20;;;6.35;;
65459;SDS011;52058;49.822;6.754;2022-08-18T03:06:08;7.35;;;6.68;;
65459;SDS011;52058;49.822;6.754;2022-08-18T03:08:34;7.97;;;6.95;;
65459;SDS011;52058;49.822;6.754;2022-08-18T03:10:59;9.20;;;7.03;;
65459;SDS011;52058;49.822;6.754;2022-08-18T03:13:24;7.97;;;7.18;;
65459;SDS011;52058;49.822;6.754;2022-08-18T03:15:50;7.97;;;7.03;;
65459;SDS011;52058;49.822;6.754;2022-08-18T03:18:15;7.90;;;7.10;;
65459;SDS011;52058;49.822;6.754;2022-08-18T03:20:41;9.13;;;6.90;;
65459;SDS011;52058;49.822;6.754;2022-08-18T03:23:09;7.50;;;6.70;;
65459;SDS011;52058;49.822;6.754;2022-08-18T03:25:35;8.32;;;6.95;;
65459;SDS011;52058;49.822;6.754;2022-08-18T03:28:01;8.23;;;7.13;;
65459;SDS011;52058;49.822;6.754;2022-08-18T03:30:28;7.75;;;7.00;;
65459;SDS011;52058;49.822;6.754;2022-08-18T03:32:53;7.75;;;6.95;;
65459;SDS011;52058;49.822;6.754;2022-08-18T03:35:19;8.43;;;7.20;;
65459;SDS011;52058;49.822;6.754;2022-08-18T03:37:44;7.95;;;7.25;;
65459;SDS011;52058;49.822;6.754;2022-08-18T03:40:09;7.03;;;6.32;;
65459;SDS011;52058;49.822;6.754;2022-08-18T03:42:35;8.48;;;6.60;;
65459;SDS011;52058;49.822;6.754;2022-08-18T03:45:01;7.68;;;6.60;;
65459;SDS011;52058;49.822;6.754;2022-08-18T03:47:27;7.40;;;6.70;;
65459;SDS011;52058;49.822;6.754;2022-08-18T03:49:53;7.82;;;6.57;;
65459;SDS011;52058;49.822;6.754;2022-08-18T03:52:18;7.90;;;7.10;;
65459;SDS011;52058;49.822;6.754;2022-08-18T03:54:43;7.25;;;6.40;;
65459;SDS011;52058;49.822;6.754;2022-08-18T03:57:09;7.82;;;7.00;;
65459;SDS011;52058;49.822;6.754;2022-08-18T03:59:36;10.25;;;6.75;;
65459;SDS011;52058;49.822;6.754;2022-08-18T04:02:02;7.88;;;7.05;;
65459;SDS011;52058;49.822;6.754;2022-08-18T04:04:28;9.05;;;7.22;;
65459;SDS011;52058;49.822;6.754;2022-08-18T04:06:55;8.88;;;7.28;;
65459;SDS011;52058;49.822;6.754;2022-08-18T04:09:24;7.90;;;7.10;;
65459;SDS011;52058;49.822;6.754;2022-08-18T04:11:51;8.20;;;6.78;;
65459;SDS011;52058;49.822;6.754;2022-08-18T04:14:19;7.60;;;6.80;;
65459;SDS011;52058;49.822;6.754;2022-08-18T04:16:47;7.72;;;6.93;;
65459;SDS011;52058;49.822;6.754;2022-08-18T04:19:13;8.80;;;7.00;;
65459;SDS011;52058;49.822;6.754;2022-08-18T04:21:41;7.72;;;7.00;;
65459;SDS011;52058;49.822;6.754;2022-08-18T04:24:07;10.77;;;7.82;;
65459;SDS011;52058;49.822;6.754;2022-08-18T04:26:38;8.45;;;7.38;;
65459;SDS011;52058;49.822;6.754;2022-08-18T04:29:07;8.05;;;7.25;;
65459;SDS011;52058;49.822;6.754;2022-08-18T04:31:33;8.30;;;7.50;;
65459;SDS011;52058;49.822;6.754;2022-08-18T04:33:59;9.18;;;6.93;;
65459;SDS011;52058;49.822;6.754;2022-08-18T04:36:25;9.65;;;7.80;;
65459;SDS011;52058;49.822;6.754;2022-08-18T04:38:52;9.20;;;7.57;;
65459;SDS011;52058;49.822;6.754;2022-08-18T04:41:18;8.82;;;7.93;;
65459;SDS011;52058;49.822;6.754;2022-08-18T04:43:44;9.02;;;7.60;;
65459;SDS011;52058;49.822;6.754;2022-08-18T04:46:10;8.63;;;7.70;;
65459;SDS011;52058;49.822;6.754;2022-08-18T04:48:37;8.02;;;7.03;;
65459;SDS011;52058;49.822;6.754;2022-08-18T04:53:34;9.52;;;7.95;;
65459;SDS011;52058;49.822;6.754;2022-08-18T04:56:17;10.55;;;8.00;;
65459;SDS011;52058;49.822;6.754;2022-08-18T04:58:57;10.85;;;7.70;;
65459;SDS011;52058;49.822;6.754;2022-08-18T05:01:25;8.93;;;8.02;;
65459;SDS011;52058;49.822;6.754;2022-08-18T05:03:54;8.48;;;7.68;;
65459;SDS011;52058;49.822;6.754;2022-08-18T05:06:22;9.13;;;7.47;;
65459;SDS011;52058;49.822;6.754;2022-08-18T05:08:51;8.15;;;6.97;;
65459;SDS011;52058;49.822;6.754;2022-08-18T05:11:18;8.60;;;7.38;;
65459;SDS011;52058;49.822;6.754;2022-08-18T05:13:45;8.50;;;7.57;;
65459;SDS011;52058;49.822;6.754;2022-08-18T05:16:11;9.82;;;8.23;;
65459;SDS011;52058;49.822;6.754;2022-08-18T05:18:36;8.48;;;7.57;;
65459;SDS011;52058;49.822;6.754;2022-08-18T05:21:04;8.35;;;7.55;;
65459;SDS011;52058;49.822;6.754;2022-08-18T05:23:38;8.30;;;7.40;;
65459;SDS011;52058;49.822;6.754;2022-08-18T05:26:07;9.65;;;8.15;;
65459;SDS011;52058;49.822;6.754;2022-08-18T05:28:33;10.27;;;8.07;;
65459;SDS011;52058;49.822;6.754;2022-08-18T05:31:14;10.68;;;8.27;;
65459;SDS011;52058;49.822;6.754;2022-08-18T05:33:42;9.35;;;7.95;;
65459;SDS011;52058;49.822;6.754;2022-08-18T05:41:34;9.00;;;7.93;;
65459;SDS011;52058;49.822;6.754;2022-08-18T05:44:09;8.02;;;7.22;;
65459;SDS011;52058;49.822;6.754;2022-08-18T05:46:42;9.32;;;7.75;;
65459;SDS011;52058;49.822;6.754;2022-08-18T05:49:11;9.48;;;8.00;;
65459;SDS011;52058;49.822;6.754;2022-08-18T05:51:43;11.07;;;8.18;;
65459;SDS011;52058;49.822;6.754;2022-08-18T05:54:11;9.60;;;8.02;;
65459;SDS011;52058;49.822;6.754;2022-08-18T05:56:57;8.27;;;7.45;;
65459;SDS011;52058;49.822;6.754;2022-08-18T05:59:30;10.20;;;7.85;;
65459;SDS011;52058;49.822;6.754;2022-08-18T06:01:59;8.80;;;7.85;;
65459;SDS011;52058;49.822;6.754;2022-08-18T06:07:15;8.43;;;7.53;;
65459;SDS011;52058;49.822;6.754;2022-08-18T06:12:16;9.90;;;7.72;;
65459;SDS011;52058;49.822;6.754;2022-08-18T06:14:48;9.10;;;7.53;;
65459;SDS011;52058;49.822;6.754;2022-08-18T06:17:19;8.43;;;7.43;;
65459;SDS011;52058;49.822;6.754;2022-08-18T06:20:03;8.20;;;7.40;;
65459;SDS011;52058;49.822;6.754;2022-08-18T06:22:59;9.85;;;7.78;;
65459;SDS011;52058;49.822;6.754;2022-08-18T06:28:21;8.30;;;7.27;;
65459;SDS011;52058;49.822;6.754;2022-08-18T06:33:22;9.70;;;8.20;;
65459;SDS011;52058;49.822;6.754;2022-08-18T06:35:54;8.00;;;6.97;;
65459;SDS011;52058;49.822;6.754;2022-08-18T06:41:22;9.38;;;7.43;;
65459;SDS011;52058;49.822;6.754;2022-08-18T06:44:10;10.75;;;8.32;;
65459;SDS011;52058;49.822;6.754;2022-08-18T06:55:03;8.60;;;7.78;;
65459;SDS011;52058;49.822;6.754;2022-08-18T06:57:33;9.75;;;8.30;;
65459;SDS011;52058;49.822;6.754;2022-08-18T07:00:09;9.98;;;8.20;;
65459;SDS011;52058;49.822;6.754;2022-08-18T07:05:30;11.15;;;8.18;;
65459;SDS011;52058;49.822;6.754;2022-08-18T07:10:33;10.15;;;7.78;;
65459;SDS011;52058;49.822;6.754;2022-08-18T07:13:07;11.10;;;7.78;;
65459;SDS011;52058;49.822;6.754;2022-08-18T07:15:47;11.05;;;8.75;;
65459;SDS011;52058;49.822;6.754;2022-08-18T07:18:14;9.15;;;8.25;;
65459;SDS011;52058;49.822;6.754;2022-08-18T07:23:34;9.27;;;7.55;;
65459;SDS011;52058;49.822;6.754;2022-08-18T07:28:33;8.82;;;7.13;;
65459;SDS011;52058;49.822;6.754;2022-08-18T07:34:27;11.38;;;7.93;;
65459;SDS011;52058;49.822;6.754;2022-08-18T07:37:06;12.52;;;8.40;;
65459;SDS011;52058;49.822;6.754;2022-08-18T07:39:37;9.30;;;8.32;;
65459;SDS011;52058;49.822;6.754;2022-08-18T07:42:30;11.15;;;8.68;;
65459;SDS011;52058;49.822;6.754;2022-08-18T07:47:50;11.57;;;8.18;;
65459;SDS011;52058;49.822;6.754;2022-08-18T07:50:32;10.18;;;8.05;;
65459;SDS011;52058;49.822;6.754;2022-08-18T07:53:10;10.30;;;8.23;;
65459;SDS011;52058;49.822;6.754;2022-08-18T07:55:46;11.68;;;8.65;;
65459;SDS011;52058;49.822;6.754;2022-08-18T08:01:15;12.73;;;9.13;;
65459;SDS011;52058;49.822;6.754;2022-08-18T08:06:42;12.98;;;8.25;;
65459;SDS011;52058;49.822;6.754;2022-08-18T08:09:19;11.70;;;9.00;;
65459;SDS011;52058;49.822;6.754;2022-08-18T08:11:55;14.55;;;8.40;;
65459;SDS011;52058;49.822;6.754;2022-08-18T08:17:10;15.50;;;9.20;;
65459;SDS011;52058;49.822;6.754;2022-08-18T08:19:51;18.13;;;8.98;;
65459;SDS011;52058;49.822;6.754;2022-08-18T08:22:41;15.50;;;9.80;;
65459;SDS011;52058;49.822;6.754;2022-08-18T08:25:18;13.32;;;9.10;;
65459;SDS011;52058;49.822;6.754;2022-08-18T08:31:00;14.82;;;10.20;;
65459;SDS011;52058;49.822;6.754;2022-08-18T08:33:46;11.80;;;9.27;;
65459;SDS011;52058;49.822;6.754;2022-08-18T08:36:22;14.50;;;9.15;;
65459;SDS011;52058;49.822;6.754;2022-08-18T08:38:55;14.13;;;9.60;;
65459;SDS011;52058;49.822;6.754;2022-08-18T08:44:02;13.60;;;8.73;;
65459;SDS011;52058;49.822;6.754;2022-08-18T08:49:40;14.05;;;9.90;;
65459;SDS011;52058;49.822;6.754;2022-08-18T08:52:15;10.02;;;9.02;;
65459;SDS011;52058;49.822;6.754;2022-08-18T08:55:06;14.57;;;9.38;;
65459;SDS011;52058;49.822;6.754;2022-08-18T08:57:41;12.85;;;9.10;;
65459;SDS011;52058;49.822;6.754;2022-08-18T09:00:14;13.25;;;10.00;;
65459;SDS011;52058;49.822;6.754;2022-08-18T09:05:45;12.57;;;10.02;;
65459;SDS011;52058;49.822;6.754;2022-08-18T09:08:34;11.88;;;9.57;;
